Time;durP1;ratioP1;P1;durP2;ratioP2;P2;SDS_P1;SDS_P2;PMS_P1;PMS_P2;Temp;Humidity;BMP_temperature;BMP_pressure;BME280_temperature;BME280_humidity;BME280_pressure;Samples;Min_cycle;Max_cycle;Signal;HPM_P1;HPM_P2
2023/02/18 00:02:07;;;;;;;13.83;12.40;;;11.90;99.90;;;;;;5074746;28;20440;-58
2023/02/18 00:04:35;;;;;;;16.03;11.80;;;11.90;99.90;;;;;;5075328;28;20465;-58
2023/02/18 00:07:02;;;;;;;14.93;13.43;;;11.90;99.90;;;;;;5075337;28;20437;-57
2023/02/18 00:09:29;;;;;;;15.30;12.53;;;11.90;99.90;;;;;;5074812;28;21018;-58
2023/02/18 00:11:56;;;;;;;18.60;13.50;;;11.90;99.90;;;;;;5074553;28;20954;-57
2023/02/18 00:14:23;;;;;;;17.10;13.37;;;11.90;99.90;;;;;;5074903;28;20453;-58
2023/02/18 00:16:50;;;;;;;14.40;12.90;;;11.90;99.90;;;;;;5074796;28;20480;-58
2023/02/18 00:19:19;;;;;;;15.70;13.73;;;11.90;99.90;;;;;;5074799;28;20456;-57
2023/02/18 00:21:47;;;;;;;16.93;13.37;;;11.90;99.90;;;;;;5075361;28;20429;-57
2023/02/18 00:24:15;;;;;;;17.37;14.23;;;12.00;99.90;;;;;;5074554;28;20452;-59
2023/02/18 00:26:43;;;;;;;15.70;13.63;;;12.00;99.90;;;;;;5074704;28;20858;-57
2023/02/18 00:29:09;;;;;;;15.83;13.87;;;11.90;99.90;;;;;;5074742;28;20441;-57
2023/02/18 00:31:37;;;;;;;16.30;14.53;;;11.90;99.90;;;;;;5074704;28;20526;-57
2023/02/18 00:34:05;;;;;;;17.33;14.40;;;11.80;99.90;;;;;;5074610;28;20448;-57
2023/02/18 00:36:34;;;;;;;16.10;14.50;;;11.80;99.90;;;;;;5074552;28;20498;-57
2023/02/18 00:39:05;;;;;;;17.00;13.57;;;11.80;99.90;;;;;;5074674;28;20440;-57
2023/02/18 00:41:33;;;;;;;16.77;14.37;;;11.80;99.90;;;;;;5074593;28;20441;-57
2023/02/18 00:44:00;;;;;;;18.60;13.20;;;11.80;99.90;;;;;;5074386;28;20440;-57
2023/02/18 00:46:28;;;;;;;18.50;13.70;;;11.80;99.90;;;;;;5074379;28;20859;-57
2023/02/18 00:48:55;;;;;;;17.63;12.87;;;11.80;99.90;;;;;;5073985;28;20880;-57
2023/02/18 00:51:22;;;;;;;15.57;12.77;;;11.80;99.90;;;;;;5074230;28;20452;-57
2023/02/18 00:53:48;;;;;;;16.57;13.10;;;11.90;99.90;;;;;;5074360;28;20800;-58
2023/02/18 00:56:17;;;;;;;17.13;12.40;;;11.80;99.90;;;;;;5074181;28;20489;-57
2023/02/18 00:58:44;;;;;;;18.73;13.50;;;11.90;99.90;;;;;;5074327;28;20453;-57
2023/02/18 01:01:11;;;;;;;14.10;11.97;;;11.80;99.90;;;;;;5073781;28;20815;-57
2023/02/18 01:03:39;;;;;;;14.40;12.70;;;11.80;99.90;;;;;;5075480;28;20448;-57
2023/02/18 01:06:07;;;;;;;14.67;10.97;;;11.80;99.90;;;;;;5074857;28;20464;-57
2023/02/18 01:08:35;;;;;;;15.50;12.20;;;11.80;99.90;;;;;;5074444;28;20445;-57
2023/02/18 01:11:03;;;;;;;14.63;12.30;;;11.80;99.90;;;;;;5075303;28;20456;-57
2023/02/18 01:13:31;;;;;;;15.40;11.20;;;11.80;99.90;;;;;;5075559;28;20437;-57
2023/02/18 01:15:58;;;;;;;14.13;11.23;;;11.80;99.90;;;;;;5075606;28;20504;-57
2023/02/18 01:18:25;;;;;;;16.53;12.10;;;11.80;99.90;;;;;;5075697;28;20444;-57
2023/02/18 01:20:52;;;;;;;16.00;12.10;;;11.80;99.90;;;;;;5074282;28;20808;-57
2023/02/18 01:23:19;;;;;;;13.40;11.47;;;11.80;99.90;;;;;;5073948;28;20429;-57
2023/02/18 01:25:46;;;;;;;13.67;11.43;;;11.80;99.90;;;;;;5073846;28;20841;-57
2023/02/18 01:28:14;;;;;;;13.30;11.63;;;11.70;99.90;;;;;;5074049;28;20452;-57
2023/02/18 01:30:42;;;;;;;12.70;10.73;;;11.70;99.90;;;;;;5074285;28;20452;-57
2023/02/18 01:33:09;;;;;;;22.13;12.70;;;11.70;99.90;;;;;;5073643;28;20456;-57
2023/02/18 01:35:38;;;;;;;12.70;11.00;;;11.70;99.90;;;;;;5073389;28;20496;-58
2023/02/18 01:38:05;;;;;;;13.30;10.47;;;11.70;99.90;;;;;;5073593;28;20453;-57
2023/02/18 01:40:32;;;;;;;21.43;11.73;;;11.70;99.90;;;;;;5073594;28;20456;-57
2023/02/18 01:42:59;;;;;;;12.57;10.50;;;11.70;99.90;;;;;;5073407;28;20437;-57
2023/02/18 01:45:59;;;;;;;12.10;10.40;;;11.70;99.90;;;;;;5073423;28;20472;-58
2023/02/18 01:48:32;;;;;;;11.67;10.00;;;11.70;99.90;;;;;;5061499;28;20460;-57
2023/02/18 01:51:02;;;;;;;14.30;11.67;;;11.60;99.90;;;;;;5073376;28;20428;-57
2023/02/18 01:53:35;;;;;;;12.10;10.70;;;11.60;99.90;;;;;;5073222;28;20452;-57
2023/02/18 01:56:06;;;;;;;13.13;10.93;;;11.50;99.90;;;;;;5073169;28;20484;-57
2023/02/18 01:58:33;;;;;;;16.07;12.00;;;11.50;99.90;;;;;;5073308;28;20433;-57
2023/02/18 02:01:01;;;;;;;16.17;12.20;;;11.50;99.90;;;;;;5073260;28;20488;-57
2023/02/18 02:03:28;;;;;;;16.53;13.23;;;11.40;99.90;;;;;;5073204;28;20455;-57
2023/02/18 02:05:55;;;;;;;14.97;11.57;;;11.50;99.90;;;;;;5073164;28;20865;-57
2023/02/18 02:08:22;;;;;;;16.80;12.67;;;11.50;99.90;;;;;;5073194;28;20451;-57
2023/02/18 02:11:11;;;;;;;16.80;13.40;;;11.40;99.90;;;;;;5073137;28;20429;-57
2023/02/18 02:13:50;;;;;;;15.50;11.37;;;11.50;99.90;;;;;;5077232;28;20444;-57
2023/02/18 02:16:26;;;;;;;16.13;13.10;;;11.40;99.90;;;;;;5077009;28;20490;-57
2023/02/18 02:19:04;;;;;;;16.13;11.10;;;11.40;99.90;;;;;;5077171;28;20432;-57
2023/02/18 02:22:05;;;;;;;16.80;12.20;;;11.40;99.90;;;;;;5077076;28;20490;-57
2023/02/18 02:25:03;;;;;;;15.13;11.60;;;11.40;99.90;;;;;;5076668;28;20425;-57
2023/02/18 02:27:51;;;;;;;14.30;11.43;;;11.40;99.90;;;;;;5077008;28;20834;-57
2023/02/18 02:31:00;;;;;;;15.00;10.93;;;11.40;99.90;;;;;;5076740;28;20464;-57
2023/02/18 02:34:00;;;;;;;14.70;9.63;;;11.40;99.90;;;;;;5061211;28;20467;-57
2023/02/18 02:36:34;;;;;;;17.40;10.97;;;11.30;99.90;;;;;;5076666;28;20539;-57
2023/02/18 02:39:08;;;;;;;15.10;11.17;;;11.30;99.90;;;;;;5076786;28;20433;-57
2023/02/18 02:41:45;;;;;;;13.97;11.03;;;11.40;99.90;;;;;;5076706;28;20429;-57
2023/02/18 02:44:20;;;;;;;12.47;10.00;;;11.30;99.90;;;;;;5076325;28;20944;-57
2023/02/18 02:46:50;;;;;;;13.57;9.87;;;11.40;99.90;;;;;;5076553;28;20448;-57
2023/02/18 02:49:31;;;;;;;12.20;10.10;;;11.40;99.90;;;;;;5076549;28;20440;-57
2023/02/18 02:52:05;;;;;;;12.80;10.20;;;11.40;99.90;;;;;;5076428;28;20425;-57
2023/02/18 02:54:31;;;;;;;12.67;9.33;;;11.40;99.90;;;;;;5076342;28;20430;-57
2023/02/18 02:57:29;;;;;;;10.30;9.20;;;11.40;99.90;;;;;;5076255;28;20480;-57
2023/02/18 03:00:01;;;;;;;12.17;9.20;;;11.40;99.90;;;;;;5075877;28;20452;-57
2023/02/18 03:02:45;;;;;;;9.63;8.20;;;11.50;99.90;;;;;;5076309;28;20459;-57
2023/02/18 03:05:24;;;;;;;11.00;8.83;;;11.50;99.90;;;;;;5076233;28;20468;-57
2023/02/18 03:08:08;;;;;;;10.33;8.07;;;11.50;99.90;;;;;;5076217;28;20440;-57
2023/02/18 03:10:50;;;;;;;8.77;7.47;;;11.50;99.90;;;;;;5074954;28;20480;-57
2023/02/18 03:13:33;;;;;;;9.30;8.33;;;11.60;99.90;;;;;;5075852;28;20444;-58
2023/02/18 03:16:11;;;;;;;12.13;7.50;;;11.60;99.90;;;;;;5076090;28;20831;-58
2023/02/18 03:18:40;;;;;;;6.73;6.07;;;11.60;99.90;;;;;;5076081;28;20451;-58
2023/02/18 03:21:11;;;;;;;9.00;6.60;;;11.60;99.90;;;;;;5075958;28;20440;-57
2023/02/18 03:23:45;;;;;;;7.63;6.83;;;11.60;99.90;;;;;;5075756;28;20454;-58
2023/02/18 03:26:14;;;;;;;8.67;7.77;;;11.60;99.90;;;;;;5075833;28;20453;-57
2023/02/18 03:28:41;;;;;;;5.87;5.33;;;11.60;99.90;;;;;;5075556;28;20793;-57
2023/02/18 03:31:12;;;;;;;5.97;5.37;;;11.60;99.90;;;;;;5075808;28;20848;-57
2023/02/18 03:33:44;;;;;;;5.60;5.10;;;11.60;99.90;;;;;;5075521;28;20444;-57
2023/02/18 03:36:12;;;;;;;5.80;5.30;;;11.60;99.90;;;;;;5075629;28;20583;-57
2023/02/18 03:38:45;;;;;;;5.13;4.63;;;11.60;99.90;;;;;;5075679;28;21025;-57
2023/02/18 03:41:12;;;;;;;4.87;4.37;;;11.60;99.90;;;;;;5075621;28;20433;-57
2023/02/18 03:43:40;;;;;;;6.93;4.47;;;11.60;99.90;;;;;;5075155;28;20455;-57
2023/02/18 03:46:07;;;;;;;4.50;4.10;;;11.60;99.90;;;;;;5075089;28;21011;-57
2023/02/18 03:48:34;;;;;;;4.70;4.17;;;11.60;99.90;;;;;;5075212;28;20457;-57
2023/02/18 03:51:00;;;;;;;6.70;4.47;;;11.60;99.90;;;;;;5075121;28;21002;-57
2023/02/18 03:53:27;;;;;;;4.23;3.83;;;11.60;99.90;;;;;;5075275;28;20865;-57
2023/02/18 03:55:55;;;;;;;4.20;3.80;;;11.60;99.90;;;;;;5075281;28;20551;-58
2023/02/18 03:58:22;;;;;;;5.70;4.10;;;11.60;99.90;;;;;;5075237;28;20484;-57
2023/02/18 04:00:48;;;;;;;4.53;4.10;;;11.60;99.90;;;;;;5075316;28;20846;-57
2023/02/18 04:03:17;;;;;;;6.40;4.60;;;11.60;99.90;;;;;;5075032;28;20453;-57
2023/02/18 04:05:43;;;;;;;4.53;3.93;;;11.50;99.90;;;;;;5074691;28;20874;-57
2023/02/18 04:08:10;;;;;;;4.93;4.33;;;11.60;99.90;;;;;;5075093;28;20436;-57
2023/02/18 04:10:37;;;;;;;4.70;4.20;;;11.60;99.90;;;;;;5075088;28;20448;-57
2023/02/18 04:13:05;;;;;;;4.80;3.40;;;11.60;99.90;;;;;;5074546;28;20945;-57
2023/02/18 04:15:33;;;;;;;3.67;3.33;;;11.50;99.90;;;;;;5074811;28;20818;-57
2023/02/18 04:18:00;;;;;;;4.60;3.70;;;11.40;99.90;;;;;;5074818;28;20571;-56
2023/02/18 04:20:26;;;;;;;4.03;3.10;;;11.30;99.90;;;;;;5074835;28;20461;-56
2023/02/18 04:22:53;;;;;;;5.10;4.00;;;11.30;99.90;;;;;;5074699;28;20444;-56
2023/02/18 04:25:20;;;;;;;4.50;3.30;;;11.20;99.90;;;;;;5074321;28;20972;-57
2023/02/18 04:27:47;;;;;;;3.70;3.10;;;11.20;99.90;;;;;;5074617;28;20452;-56
2023/02/18 04:30:15;;;;;;;3.83;2.93;;;11.20;99.90;;;;;;5074554;28;20441;-56
2023/02/18 04:32:42;;;;;;;3.93;2.83;;;11.20;99.90;;;;;;5074590;28;20429;-56
2023/02/18 04:35:08;;;;;;;3.87;3.17;;;11.10;99.90;;;;;;5073852;28;20483;-56
2023/02/18 04:37:35;;;;;;;3.50;3.20;;;11.10;99.90;;;;;;5074484;28;20484;-56
2023/02/18 04:40:02;;;;;;;4.20;3.20;;;11.10;99.90;;;;;;5074445;28;20429;-56
2023/02/18 04:42:29;;;;;;;3.70;2.83;;;11.10;99.90;;;;;;5074537;28;20539;-56
2023/02/18 04:44:55;;;;;;;3.53;2.87;;;11.20;99.90;;;;;;5074089;28;20972;-56
2023/02/18 04:47:23;;;;;;;4.60;3.83;;;11.20;99.90;;;;;;5074260;28;20453;-56
2023/02/18 04:49:50;;;;;;;4.53;3.90;;;11.10;99.90;;;;;;5074219;28;20449;-55
2023/02/18 04:52:17;;;;;;;3.50;3.20;;;11.10;99.90;;;;;;5073777;28;20909;-56
2023/02/18 04:54:44;;;;;;;5.47;4.00;;;11.00;99.90;;;;;;5074077;28;20476;-56
2023/02/18 04:57:11;;;;;;;7.93;5.03;;;11.10;99.90;;;;;;5073750;28;20976;-56
2023/02/18 04:59:38;;;;;;;5.17;4.00;;;11.00;99.90;;;;;;5073715;28;20448;-56
2023/02/18 05:02:05;;;;;;;4.23;3.83;;;11.00;99.90;;;;;;5073767;28;20971;-56
2023/02/18 05:04:33;;;;;;;6.80;4.70;;;11.00;99.90;;;;;;5073705;28;20928;-57
2023/02/18 05:07:00;;;;;;;5.47;4.83;;;11.00;99.90;;;;;;5073966;28;20464;-56
2023/02/18 05:09:26;;;;;;;6.90;5.40;;;11.00;99.90;;;;;;5073971;28;20437;-56
2023/02/18 05:11:53;;;;;;;7.70;5.80;;;11.00;99.90;;;;;;5073894;28;20448;-56
2023/02/18 05:14:20;;;;;;;5.97;5.10;;;11.00;99.90;;;;;;5073810;28;20455;-56
2023/02/18 05:16:47;;;;;;;6.00;5.40;;;11.00;99.90;;;;;;5074121;28;20479;-55
2023/02/18 05:19:15;;;;;;;6.70;5.37;;;11.00;99.90;;;;;;5073745;28;20448;-55
2023/02/18 05:21:43;;;;;;;5.60;5.03;;;11.00;99.90;;;;;;5073785;28;20440;-55
2023/02/18 05:24:10;;;;;;;8.97;6.20;;;11.00;99.90;;;;;;5073703;28;20494;-55
2023/02/18 05:26:37;;;;;;;7.43;6.07;;;10.90;99.90;;;;;;5073272;28;20999;-56
2023/02/18 05:29:04;;;;;;;7.13;6.10;;;10.90;99.90;;;;;;5073634;28;20444;-56
2023/02/18 05:31:31;;;;;;;7.53;6.10;;;10.90;99.90;;;;;;5073619;28;20452;-56
2023/02/18 05:33:57;;;;;;;8.57;5.87;;;10.90;99.90;;;;;;5073227;28;20944;-56
2023/02/18 05:36:25;;;;;;;6.87;6.13;;;11.00;99.90;;;;;;5073158;28;20468;-56
2023/02/18 05:38:53;;;;;;;6.70;5.20;;;10.90;99.90;;;;;;5073607;28;20803;-56
2023/02/18 05:41:20;;;;;;;6.60;5.87;;;11.00;99.90;;;;;;5073153;28;20436;-56
2023/02/18 05:46:31;;;;;;;7.27;5.30;;;10.90;99.90;;;;;;5073148;28;20528;-56
2023/02/18 05:48:58;;;;;;;8.03;5.40;;;10.90;99.90;;;;;;5073148;28;21071;-56
2023/02/18 05:51:25;;;;;;;6.30;5.37;;;10.90;99.90;;;;;;5073328;28;20452;-56
2023/02/18 05:53:53;;;;;;;6.70;5.23;;;10.90;99.90;;;;;;5073420;28;20429;-56
2023/02/18 05:56:19;;;;;;;6.20;5.60;;;10.90;99.90;;;;;;5073239;28;20464;-56
2023/02/18 05:58:46;;;;;;;6.60;5.30;;;10.90;99.90;;;;;;5073320;28;20488;-56
2023/02/18 06:01:13;;;;;;;6.17;5.10;;;10.90;99.90;;;;;;5073404;28;20444;-56
2023/02/18 06:03:40;;;;;;;5.57;4.60;;;10.90;99.90;;;;;;5073117;28;20552;-57
2023/02/18 06:06:07;;;;;;;5.20;4.47;;;10.90;99.90;;;;;;5072860;28;21001;-57
2023/02/18 06:08:34;;;;;;;4.10;3.63;;;10.90;99.90;;;;;;5073271;28;20425;-57
2023/02/18 06:11:02;;;;;;;5.90;3.73;;;10.90;99.90;;;;;;5073203;28;20452;-57
2023/02/18 06:13:29;;;;;;;5.70;4.30;;;10.90;99.90;;;;;;5072750;28;20829;-57
2023/02/18 06:15:56;;;;;;;4.80;3.40;;;11.00;99.90;;;;;;5073236;28;20475;-56
2023/02/18 06:18:23;;;;;;;3.97;3.57;;;11.00;99.90;;;;;;5073562;28;20511;-56
2023/02/18 06:20:49;;;;;;;4.27;3.87;;;11.00;99.90;;;;;;5073430;28;20891;-57
2023/02/18 06:23:16;;;;;;;4.23;2.90;;;11.00;99.90;;;;;;5072955;28;20979;-57
2023/02/18 06:25:43;;;;;;;8.70;3.20;;;11.00;99.90;;;;;;5072965;28;20464;-57
2023/02/18 06:28:11;;;;;;;3.87;3.47;;;11.10;99.90;;;;;;5073106;28;20424;-57
2023/02/18 06:30:38;;;;;;;3.80;3.10;;;11.00;99.90;;;;;;5073049;28;20453;-57
2023/02/18 06:33:05;;;;;;;2.73;2.47;;;11.00;99.90;;;;;;5072787;28;20940;-57
2023/02/18 06:35:32;;;;;;;3.13;2.80;;;11.00;99.90;;;;;;5073049;28;20480;-57
2023/02/18 06:37:59;;;;;;;3.20;2.60;;;11.10;99.90;;;;;;5073047;28;20481;-57
2023/02/18 06:40:26;;;;;;;3.33;3.03;;;11.10;99.90;;;;;;5072775;28;20448;-57
2023/02/18 06:42:52;;;;;;;3.97;3.57;;;11.10;99.90;;;;;;5073024;28;20463;-58
2023/02/18 06:45:20;;;;;;;3.40;3.10;;;11.10;99.90;;;;;;5072958;28;20473;-59
2023/02/18 06:47:47;;;;;;;3.70;3.40;;;11.10;99.90;;;;;;5072678;28;20456;-57
2023/02/18 06:50:14;;;;;;;3.20;2.90;;;11.10;99.90;;;;;;5072973;28;20449;-57
2023/02/18 06:52:41;;;;;;;2.93;2.67;;;11.20;99.90;;;;;;5072784;28;20449;-57
2023/02/18 06:55:09;;;;;;;2.70;2.50;;;11.20;99.90;;;;;;5072489;28;20464;-57
2023/02/18 06:57:36;;;;;;;3.43;2.80;;;11.20;99.90;;;;;;5073455;28;20554;-57
2023/02/18 07:00:04;;;;;;;2.97;2.27;;;11.10;99.90;;;;;;5076364;28;20436;-57
2023/02/18 07:02:32;;;;;;;2.87;2.57;;;11.20;99.90;;;;;;5076366;28;20453;-57
2023/02/18 07:04:59;;;;;;;3.20;2.57;;;11.20;99.90;;;;;;5076542;28;20471;-57
2023/02/18 07:07:25;;;;;;;2.97;2.57;;;11.20;99.90;;;;;;5076411;28;20924;-57
2023/02/18 07:09:52;;;;;;;2.30;2.10;;;11.20;99.90;;;;;;5075988;28;20444;-57
2023/02/18 07:12:19;;;;;;;2.90;2.53;;;11.20;99.90;;;;;;5075919;28;20460;-57
2023/02/18 07:14:45;;;;;;;2.23;2.03;;;11.20;99.90;;;;;;5076206;28;20472;-57
2023/02/18 07:17:12;;;;;;;2.93;2.60;;;11.20;99.90;;;;;;5076526;28;20885;-57
2023/02/18 07:19:40;;;;;;;4.07;2.10;;;11.20;99.90;;;;;;5076279;28;20444;-57
2023/02/18 07:22:07;;;;;;;4.63;2.67;;;11.20;99.90;;;;;;5076453;28;20452;-57
2023/02/18 07:24:34;;;;;;;5.17;2.43;;;11.20;99.90;;;;;;5076404;28;20439;-57
2023/02/18 07:27:01;;;;;;;3.03;2.60;;;11.10;99.90;;;;;;5075880;28;20975;-57
2023/02/18 07:29:27;;;;;;;2.67;2.47;;;11.10;99.90;;;;;;5076381;28;20451;-57
2023/02/18 07:31:54;;;;;;;1.70;1.60;;;11.10;99.90;;;;;;5076200;28;20928;-57
2023/02/18 07:34:21;;;;;;;3.33;2.50;;;11.10;99.90;;;;;;5076222;28;20441;-57
2023/02/18 07:36:49;;;;;;;2.10;1.90;;;11.10;99.90;;;;;;5077052;28;20507;-57
2023/02/18 07:39:19;;;;;;;1.53;1.40;;;11.20;99.90;;;;;;5077377;28;20526;-57
2023/02/18 07:41:46;;;;;;;2.13;1.93;;;11.20;99.90;;;;;;5077243;28;20807;-57
2023/02/18 07:44:13;;;;;;;2.53;1.87;;;11.10;99.90;;;;;;5077338;28;20444;-57
2023/02/18 07:46:40;;;;;;;2.50;2.20;;;11.10;99.90;;;;;;5077775;28;20465;-57
2023/02/18 07:49:07;;;;;;;3.57;2.23;;;11.10;99.90;;;;;;5078026;28;20461;-57
2023/02/18 07:51:34;;;;;;;1.70;1.60;;;11.10;99.90;;;;;;5075909;28;20460;-57
2023/02/18 07:54:02;;;;;;;2.50;1.80;;;11.00;99.90;;;;;;5076476;28;20444;-57
2023/02/18 07:56:28;;;;;;;3.77;1.70;;;11.10;99.90;;;;;;5075600;28;20491;-56
2023/02/18 07:58:55;;;;;;;2.40;1.87;;;11.00;99.90;;;;;;5075589;28;20491;-57
2023/02/18 08:01:22;;;;;;;2.17;1.67;;;11.00;99.90;;;;;;5076057;28;20436;-56
2023/02/18 08:03:49;;;;;;;4.60;2.30;;;10.90;99.90;;;;;;5075575;28;20440;-57
2023/02/18 08:06:22;;;;;;;3.80;1.90;;;10.80;99.90;;;;;;5075840;28;20533;-57
2023/02/18 08:08:48;;;;;;;7.07;2.23;;;10.70;99.90;;;;;;5075041;28;20429;-55
2023/02/18 08:11:17;;;;;;;2.00;1.80;;;10.70;99.90;;;;;;5074881;28;20987;-56
2023/02/18 08:13:44;;;;;;;7.07;2.33;;;10.70;99.90;;;;;;5075250;28;20777;-56
2023/02/18 08:16:10;;;;;;;4.23;2.13;;;10.70;99.90;;;;;;5074436;28;20491;-57
2023/02/18 08:18:37;;;;;;;4.33;2.40;;;10.70;99.90;;;;;;5075051;28;20891;-55
2023/02/18 08:21:04;;;;;;;4.30;2.87;;;10.80;99.90;;;;;;5075297;28;20444;-56
2023/02/18 08:23:30;;;;;;;6.50;4.20;;;10.70;99.90;;;;;;5074621;28;21034;-56
2023/02/18 08:25:57;;;;;;;4.53;2.10;;;10.70;99.90;;;;;;5075341;28;20872;-55
2023/02/18 08:28:25;;;;;;;5.70;2.60;;;10.70;99.90;;;;;;5075027;28;20444;-55
2023/02/18 08:30:54;;;;;;;3.50;2.30;;;10.70;99.90;;;;;;5074781;28;20449;-56
2023/02/18 08:33:21;;;;;;;6.77;2.80;;;10.60;99.90;;;;;;5075366;28;20611;-55
2023/02/18 08:35:49;;;;;;;5.70;2.93;;;10.60;99.90;;;;;;5075518;28;20480;-55
2023/02/18 08:38:16;;;;;;;6.10;2.30;;;10.60;99.90;;;;;;5075013;28;20465;-56
2023/02/18 08:40:43;;;;;;;11.97;2.73;;;10.60;99.90;;;;;;5074983;28;20440;-56
2023/02/18 08:43:10;;;;;;;7.73;2.87;;;10.70;99.90;;;;;;5074843;28;20436;-56
2023/02/18 08:45:39;;;;;;;4.60;2.50;;;10.70;99.90;;;;;;5074640;28;20465;-56
2023/02/18 08:48:06;;;;;;;6.67;2.57;;;10.80;99.90;;;;;;5075001;28;20835;-56
2023/02/18 08:50:33;;;;;;;12.10;2.27;;;10.80;99.90;;;;;;5074521;28;20911;-56
2023/02/18 08:53:02;;;;;;;6.17;2.67;;;10.80;99.90;;;;;;5075506;28;20453;-56
2023/02/18 08:55:29;;;;;;;7.10;3.23;;;10.90;99.90;;;;;;5075234;28;20579;-56
2023/02/18 08:57:56;;;;;;;5.03;2.80;;;10.90;99.90;;;;;;5075019;28;20472;-57
2023/02/18 09:00:23;;;;;;;5.53;2.23;;;11.00;99.90;;;;;;5075958;28;20859;-56
2023/02/18 09:02:51;;;;;;;9.33;3.60;;;11.00;99.90;;;;;;5076675;28;20461;-56
2023/02/18 09:05:18;;;;;;;4.93;2.43;;;11.00;99.90;;;;;;5076474;28;20491;-58
2023/02/18 09:07:45;;;;;;;3.93;2.40;;;11.00;99.90;;;;;;5076020;28;20905;-56
2023/02/18 09:10:11;;;;;;;3.90;2.20;;;11.00;99.90;;;;;;5075876;28;20456;-56
2023/02/18 09:12:38;;;;;;;6.37;2.93;;;11.00;99.90;;;;;;5075645;28;20425;-56
2023/02/18 09:15:05;;;;;;;4.33;2.80;;;11.00;99.90;;;;;;5076713;28;20468;-56
2023/02/18 09:17:32;;;;;;;10.17;2.57;;;11.00;99.90;;;;;;5076850;28;20424;-56
2023/02/18 09:20:00;;;;;;;5.87;2.03;;;11.00;99.90;;;;;;5075883;28;20900;-56
2023/02/18 09:22:27;;;;;;;7.77;2.20;;;11.10;99.90;;;;;;5075016;28;20432;-56
2023/02/18 09:24:54;;;;;;;8.33;2.40;;;11.30;99.90;;;;;;5073625;28;20461;-56
2023/02/18 09:27:21;;;;;;;11.83;2.50;;;11.30;99.90;;;;;;5073483;28;20459;-56
2023/02/18 09:29:49;;;;;;;4.40;2.23;;;11.30;99.90;;;;;;5073722;28;20824;-56
2023/02/18 09:32:17;;;;;;;4.93;2.80;;;11.30;99.90;;;;;;5073644;28;20816;-56
2023/02/18 09:34:45;;;;;;;6.23;2.93;;;11.30;99.90;;;;;;5073181;28;20855;-55
2023/02/18 09:37:14;;;;;;;8.43;2.40;;;11.30;99.90;;;;;;5073474;28;20453;-56
2023/02/18 09:39:41;;;;;;;8.00;2.93;;;11.30;99.90;;;;;;5073503;28;20476;-56
2023/02/18 09:42:13;;;;;;;6.53;2.50;;;11.30;99.90;;;;;;5073462;28;20452;-56
2023/02/18 09:44:43;;;;;;;9.77;2.67;;;11.40;99.90;;;;;;5073358;28;20476;-56
2023/02/18 09:47:15;;;;;;;4.70;2.00;;;11.40;99.90;;;;;;5073277;28;20509;-56
2023/02/18 09:49:47;;;;;;;9.90;2.60;;;11.40;99.90;;;;;;5073430;28;20439;-56
2023/02/18 09:52:19;;;;;;;12.23;2.73;;;11.50;99.90;;;;;;5073387;28;20441;-56
2023/02/18 09:54:46;;;;;;;11.40;2.70;;;11.40;99.90;;;;;;5073250;28;20460;-56
2023/02/18 09:57:24;;;;;;;9.03;2.90;;;11.50;99.90;;;;;;5073054;28;20928;-56
2023/02/18 09:59:59;;;;;;;8.93;2.77;;;11.40;99.90;;;;;;5073249;28;20496;-56
2023/02/18 10:02:26;;;;;;;6.37;3.17;;;11.40;99.90;;;;;;5073306;28;20433;-56
2023/02/18 10:04:53;;;;;;;9.00;2.90;;;11.30;99.90;;;;;;5072884;28;20843;-56
2023/02/18 10:07:25;;;;;;;6.90;3.17;;;11.40;99.90;;;;;;5073282;28;20451;-56
2023/02/18 10:09:53;;;;;;;11.40;2.57;;;11.40;99.90;;;;;;5073186;28;20424;-56
2023/02/18 10:12:22;;;;;;;7.20;2.90;;;11.40;99.90;;;;;;5072962;28;20910;-56
2023/02/18 10:14:51;;;;;;;8.63;3.17;;;11.50;99.90;;;;;;5073106;28;20468;-56
2023/02/18 10:17:19;;;;;;;9.60;2.43;;;11.40;99.90;;;;;;5073222;28;20436;-56
2023/02/18 10:19:47;;;;;;;8.23;2.73;;;11.40;99.90;;;;;;5072817;28;20488;-56
2023/02/18 10:22:16;;;;;;;6.90;1.73;;;11.40;99.90;;;;;;5073490;28;20456;-56
2023/02/18 10:24:48;;;;;;;6.73;2.50;;;11.40;99.90;;;;;;5072672;28;20464;-56
2023/02/18 10:27:21;;;;;;;10.67;2.77;;;11.40;99.90;;;;;;5073081;28;20433;-56
2023/02/18 10:29:49;;;;;;;5.67;2.30;;;11.30;99.90;;;;;;5073528;28;20425;-56
2023/02/18 10:32:21;;;;;;;7.70;2.63;;;11.30;99.90;;;;;;5073194;28;20456;-56
2023/02/18 10:34:52;;;;;;;10.17;2.60;;;11.30;99.90;;;;;;5076820;28;20464;-56
2023/02/18 10:37:38;;;;;;;7.80;3.80;;;11.30;99.90;;;;;;5076857;28;20500;-56
2023/02/18 10:40:13;;;;;;;8.40;4.27;;;11.20;99.90;;;;;;5076700;28;20464;-56
2023/02/18 10:42:51;;;;;;;10.17;3.90;;;11.20;99.90;;;;;;5076742;28;20463;-55
2023/02/18 10:45:32;;;;;;;7.37;3.73;;;11.10;99.90;;;;;;5076717;28;20468;-56
2023/02/18 10:48:20;;;;;;;5.87;4.47;;;11.00;99.90;;;;;;5076210;28;20955;-55
2023/02/18 10:50:47;;;;;;;13.70;4.17;;;10.90;99.90;;;;;;5076610;28;20447;-55
2023/02/18 10:53:18;;;;;;;7.20;3.47;;;10.80;99.90;;;;;;5076525;28;20817;-56
2023/02/18 10:55:49;;;;;;;6.40;4.30;;;10.80;99.90;;;;;;5076119;28;21019;-57
2023/02/18 10:58:32;;;;;;;9.57;3.70;;;10.70;99.90;;;;;;5076343;28;20480;-56
2023/02/18 11:01:03;;;;;;;7.20;3.47;;;10.70;99.90;;;;;;5076526;28;20443;-56
2023/02/18 11:03:41;;;;;;;9.20;3.60;;;10.60;99.90;;;;;;5076480;28;20443;-56
2023/02/18 11:06:17;;;;;;;7.77;3.03;;;10.60;99.90;;;;;;5076283;28;20533;-56
2023/02/18 11:08:45;;;;;;;7.07;3.23;;;10.50;99.90;;;;;;5076270;28;20512;-56
2023/02/18 11:11:17;;;;;;;6.33;3.00;;;10.60;99.90;;;;;;5076080;28;20905;-55
2023/02/18 11:13:44;;;;;;;7.20;3.30;;;10.60;99.90;;;;;;5076135;28;20447;-57
2023/02/18 11:16:12;;;;;;;8.20;4.10;;;10.60;99.90;;;;;;5076238;28;20472;-55
2023/02/18 11:18:41;;;;;;;5.97;4.60;;;10.70;99.90;;;;;;5075999;28;20484;-55
2023/02/18 11:21:23;;;;;;;5.63;3.43;;;10.70;99.90;;;;;;5075655;28;20970;-56
2023/02/18 11:23:52;;;;;;;6.77;4.10;;;10.70;99.90;;;;;;5075990;28;20428;-55
2023/02/18 11:26:26;;;;;;;8.23;3.50;;;10.60;99.90;;;;;;5075875;28;20521;-55
2023/02/18 11:28:59;;;;;;;7.77;3.60;;;10.60;99.90;;;;;;5075928;28;20432;-55
2023/02/18 11:31:36;;;;;;;6.77;4.20;;;10.70;99.90;;;;;;5075718;28;20844;-55
2023/02/18 11:34:03;;;;;;;9.37;6.60;;;10.60;99.90;;;;;;5075712;28;20909;-55
2023/02/18 11:36:33;;;;;;;4.43;3.90;;;10.60;99.90;;;;;;5075708;28;20484;-55
2023/02/18 11:39:05;;;;;;;5.60;4.17;;;10.70;99.90;;;;;;5075671;28;20476;-55
2023/02/18 11:41:36;;;;;;;10.43;3.87;;;10.70;99.90;;;;;;5075641;28;20429;-55
2023/02/18 11:44:06;;;;;;;5.93;4.30;;;10.80;99.90;;;;;;5075421;28;20433;-55
2023/02/18 11:46:34;;;;;;;12.17;5.07;;;10.80;99.90;;;;;;5075597;28;20480;-55
2023/02/18 11:49:21;;;;;;;4.20;3.80;;;10.80;99.90;;;;;;5075181;28;20464;-55
2023/02/18 11:51:49;;;;;;;5.33;3.53;;;10.80;99.90;;;;;;5075522;28;20433;-55
2023/02/18 11:54:24;;;;;;;6.20;3.17;;;10.80;99.90;;;;;;5075599;28;20459;-55
2023/02/18 11:56:58;;;;;;;4.87;3.57;;;10.80;99.90;;;;;;5075478;28;21011;-55
2023/02/18 11:59:25;;;;;;;6.03;3.50;;;10.80;99.90;;;;;;5075324;28;20468;-55
2023/02/18 12:01:56;;;;;;;8.13;3.60;;;11.00;99.90;;;;;;5075223;28;20453;-55
2023/02/18 12:04:28;;;;;;;5.20;4.33;;;10.90;99.90;;;;;;5075558;28;20437;-55
2023/02/18 12:07:13;;;;;;;6.30;4.40;;;10.90;99.90;;;;;;5073552;28;20451;-56
2023/02/18 12:09:44;;;;;;;5.47;4.93;;;10.90;99.90;;;;;;5064343;28;20454;-55
2023/02/18 12:12:17;;;;;;;5.93;4.20;;;10.80;99.90;;;;;;5054963;28;20436;-55
2023/02/18 12:14:44;;;;;;;9.03;5.47;;;10.90;99.90;;;;;;5054896;28;20474;-55
2023/02/18 12:17:43;;;;;;;5.80;5.10;;;10.80;99.90;;;;;;5055030;28;20442;-56
2023/02/18 12:20:37;;;;;;;7.63;5.20;;;10.90;99.90;;;;;;5068426;28;20469;-56
2023/02/18 12:23:12;;;;;;;5.00;4.60;;;10.80;99.90;;;;;;5074418;28;20964;-56
2023/02/18 12:25:48;;;;;;;7.53;5.37;;;10.80;99.90;;;;;;5075285;28;20471;-57
2023/02/18 12:28:31;;;;;;;9.03;5.30;;;10.90;99.90;;;;;;5074818;28;20432;-57
2023/02/18 12:31:13;;;;;;;5.27;4.77;;;11.00;99.90;;;;;;5074848;28;20428;-56
2023/02/18 12:33:51;;;;;;;5.17;3.83;;;11.00;99.90;;;;;;5074912;28;20437;-56
2023/02/18 12:36:30;;;;;;;5.30;4.70;;;11.00;99.90;;;;;;5074815;28;20468;-56
2023/02/18 12:39:11;;;;;;;5.60;4.30;;;10.90;99.90;;;;;;5075899;28;20465;-57
2023/02/18 12:42:12;;;;;;;7.10;4.50;;;10.90;99.90;;;;;;5074547;28;20498;-57
2023/02/18 12:44:45;;;;;;;8.80;4.30;;;11.00;99.90;;;;;;5074908;28;20559;-56
2023/02/18 12:47:29;;;;;;;4.83;4.43;;;11.00;99.90;;;;;;5074343;28;20463;-56
2023/02/18 12:50:43;;;;;;;5.63;5.07;;;11.00;99.90;;;;;;5074024;28;20484;-56
2023/02/18 12:53:33;;;;;;;5.37;4.57;;;10.90;99.90;;;;;;5050668;28;20457;-56
2023/02/18 12:56:20;;;;;;;5.57;4.33;;;10.90;99.90;;;;;;5073322;28;20984;-57
2023/02/18 12:58:55;;;;;;;5.80;5.20;;;10.80;99.90;;;;;;5074198;28;20421;-57
2023/02/18 13:01:40;;;;;;;6.20;4.73;;;10.80;99.90;;;;;;5074374;28;20436;-57
2023/02/18 13:04:27;;;;;;;6.80;5.47;;;10.90;99.90;;;;;;5074264;28;20451;-57